createdAt,value
2017-07-06T00:01:22.860Z,54.40
2017-07-06T00:03:50.303Z,54.70
2017-07-06T00:06:17.765Z,54.70
2017-07-06T00:08:45.200Z,54.70
2017-07-06T00:11:12.654Z,55.10
2017-07-06T00:13:40.080Z,55.00
2017-07-06T00:16:07.519Z,55.10
2017-07-06T00:18:34.948Z,55.10
2017-07-06T00:21:02.402Z,55.20
2017-07-06T00:23:29.834Z,55.10
2017-07-06T00:25:57.665Z,55.40
2017-07-06T00:28:25.104Z,55.40
2017-07-06T00:30:52.600Z,55.30
2017-07-06T00:33:20.041Z,55.50
2017-07-06T00:35:47.495Z,55.90
2017-07-06T00:38:14.927Z,56.30
2017-07-06T00:40:42.364Z,56.60
2017-07-06T00:43:09.800Z,56.70
2017-07-06T00:45:37.237Z,56.90
2017-07-06T00:48:04.688Z,57.20
2017-07-06T00:50:32.124Z,57.10
2017-07-06T00:52:59.592Z,57.10
2017-07-06T00:55:27.137Z,56.90
2017-07-06T00:57:54.607Z,56.60
2017-07-06T01:00:22.136Z,56.30
2017-07-06T01:02:50.386Z,56.10
2017-07-06T01:05:17.820Z,56.00
2017-07-06T01:07:45.332Z,55.80
2017-07-06T01:10:12.776Z,56.00
2017-07-06T01:12:40.205Z,56.10
2017-07-06T01:15:07.636Z,56.00
2017-07-06T01:17:35.144Z,55.90
2017-07-06T01:20:02.576Z,55.70
2017-07-06T01:22:30.016Z,56.20
2017-07-06T01:24:57.484Z,55.60
2017-07-06T01:27:25.684Z,55.80
2017-07-06T01:29:53.124Z,55.80
2017-07-06T01:32:20.547Z,55.80
2017-07-06T01:34:48.000Z,55.80
2017-07-06T01:37:15.420Z,56.00
2017-07-06T01:39:43.624Z,56.40
2017-07-06T01:42:11.051Z,56.30
2017-07-06T01:44:38.489Z,56.50
2017-07-06T01:47:05.924Z,57.00
2017-07-06T01:49:34.154Z,57.70
2017-07-06T01:52:01.690Z,57.60
2017-07-06T01:54:29.237Z,57.90
2017-07-06T01:56:56.665Z,58.10
2017-07-06T01:59:24.097Z,58.10
2017-07-06T02:01:51.536Z,58.10
2017-07-06T02:04:18.978Z,58.20
2017-07-06T02:06:46.453Z,58.30
2017-07-06T02:09:13.886Z,58.50
2017-07-06T02:11:41.330Z,58.60
2017-07-06T02:14:08.767Z,58.80
2017-07-06T02:16:36.213Z,58.80
2017-07-06T02:19:03.655Z,58.90
2017-07-06T02:21:31.091Z,59.20
2017-07-06T02:23:58.529Z,59.10
2017-07-06T02:26:26.013Z,59.10
2017-07-06T02:28:54.218Z,59.10
2017-07-06T02:31:21.672Z,59.10
2017-07-06T02:33:49.209Z,59.30
2017-07-06T02:36:16.689Z,59.40
2017-07-06T02:38:44.145Z,59.50
2017-07-06T02:41:12.379Z,59.60
2017-07-06T02:43:39.943Z,59.50
2017-07-06T02:46:08.135Z,59.80
2017-07-06T02:48:35.572Z,59.70
2017-07-06T02:51:03.079Z,59.90
2017-07-06T02:53:30.512Z,60.20
2017-07-06T02:55:57.948Z,60.20
2017-07-06T02:58:25.406Z,60.30
2017-07-06T03:00:52.843Z,60.70
2017-07-06T03:06:11.259Z,61.00
2017-07-06T03:08:38.730Z,60.90
2017-07-06T03:11:06.318Z,60.80
2017-07-06T03:13:33.704Z,60.70
2017-07-06T03:16:01.132Z,60.70
2017-07-06T03:18:28.606Z,60.70
2017-07-06T03:20:56.142Z,60.70
2017-07-06T03:23:23.621Z,60.70
2017-07-06T03:25:51.129Z,60.70
2017-07-06T03:28:18.559Z,60.70
2017-07-06T03:30:45.996Z,60.70
2017-07-06T03:33:13.436Z,60.70
2017-07-06T03:35:40.889Z,60.90
2017-07-06T03:38:08.304Z,61.00
2017-07-06T03:40:35.785Z,61.20
2017-07-06T03:43:03.323Z,61.40
2017-07-06T03:45:30.756Z,61.30
2017-07-06T03:47:58.200Z,61.30
2017-07-06T03:50:25.628Z,61.40
2017-07-06T03:52:53.105Z,61.30
2017-07-06T03:55:20.646Z,61.20
2017-07-06T03:57:48.079Z,61.10
2017-07-06T04:00:15.520Z,60.80
2017-07-06T04:02:42.960Z,60.70
2017-07-06T04:05:10.387Z,60.30
2017-07-06T04:07:37.842Z,60.00
2017-07-06T04:10:06.089Z,60.10
2017-07-06T04:12:33.556Z,60.10
2017-07-06T04:15:01.001Z,60.30
2017-07-06T04:17:28.485Z,60.80
2017-07-06T04:19:55.921Z,60.60
2017-07-06T04:22:23.358Z,61.00
2017-07-06T04:24:51.561Z,59.60
2017-07-06T04:27:18.993Z,59.50
2017-07-06T04:29:46.429Z,58.80
2017-07-06T04:32:13.880Z,58.70
2017-07-06T04:34:41.311Z,58.00
2017-07-06T04:37:08.754Z,57.90
2017-07-06T04:39:36.277Z,58.10
2017-07-06T04:42:04.503Z,57.50
2017-07-06T04:44:31.929Z,57.50
2017-07-06T04:46:59.397Z,57.40
2017-07-06T04:49:26.844Z,57.50
2017-07-06T04:51:54.294Z,57.20
2017-07-06T04:54:22.500Z,57.00
2017-07-06T04:56:50.192Z,57.00
2017-07-06T04:59:17.641Z,56.60
2017-07-06T05:01:45.082Z,56.60
2017-07-06T05:04:12.533Z,56.60
2017-07-06T05:06:39.956Z,55.70
2017-07-06T05:09:07.406Z,55.80
2017-07-06T05:11:34.841Z,55.40
2017-07-06T05:14:02.391Z,55.30
2017-07-06T05:16:29.824Z,54.50
2017-07-06T05:18:57.347Z,53.70
2017-07-06T05:21:24.789Z,53.10
2017-07-06T05:23:52.218Z,52.60
2017-07-06T05:26:19.663Z,51.90
2017-07-06T05:28:47.104Z,50.70
2017-07-06T05:31:14.543Z,49.80
2017-07-06T05:33:41.972Z,49.00
2017-07-06T05:36:09.409Z,47.70
2017-07-06T05:38:36.853Z,46.50
2017-07-06T05:41:04.300Z,45.10
2017-07-06T05:43:31.761Z,43.90
2017-07-06T05:45:59.177Z,43.00
2017-07-06T05:48:26.612Z,42.50
2017-07-06T05:50:54.817Z,40.20
2017-07-06T05:53:22.279Z,40.20
2017-07-06T05:55:49.725Z,39.70
2017-07-06T05:58:17.165Z,38.70
2017-07-06T06:00:44.597Z,38.10
2017-07-06T06:03:12.037Z,37.70
2017-07-06T06:05:39.501Z,37.30
2017-07-06T06:08:06.941Z,36.90
2017-07-06T06:10:34.373Z,36.20
2017-07-06T06:13:01.823Z,35.40
2017-07-06T06:15:29.257Z,34.80
2017-07-06T06:17:56.696Z,34.20
2017-07-06T06:20:24.238Z,33.30
2017-07-06T06:22:51.775Z,32.70
2017-07-06T06:25:19.214Z,32.60
2017-07-06T06:27:46.693Z,32.40
2017-07-06T06:30:14.149Z,32.30
2017-07-06T06:32:42.371Z,31.30
2017-07-06T06:35:09.835Z,31.30
2017-07-06T06:37:37.275Z,30.50
2017-07-06T06:40:04.725Z,29.80
2017-07-06T06:42:32.153Z,29.30
2017-07-06T06:44:59.631Z,30.10
2017-07-06T06:47:27.873Z,28.20
2017-07-06T06:49:55.328Z,28.20
2017-07-06T06:52:23.681Z,28.00
2017-07-06T06:54:51.115Z,28.10
2017-07-06T06:57:18.562Z,28.00
2017-07-06T06:59:46.013Z,27.60
2017-07-06T07:02:13.436Z,27.30
2017-07-06T07:04:40.981Z,27.30
2017-07-06T07:07:08.463Z,27.40
2017-07-06T07:09:35.913Z,27.30
2017-07-06T07:12:03.340Z,26.90
2017-07-06T07:14:31.593Z,27.00
2017-07-06T07:16:59.802Z,26.90
2017-07-06T07:19:27.246Z,26.80
2017-07-06T07:21:55.661Z,26.90
2017-07-06T07:24:23.905Z,26.70
2017-07-06T07:26:51.353Z,27.30
2017-07-06T07:29:18.785Z,26.80
2017-07-06T07:31:46.250Z,26.60
2017-07-06T07:34:14.445Z,26.90
2017-07-06T07:36:41.942Z,26.40
2017-07-06T07:39:09.377Z,26.40
2017-07-06T07:41:36.934Z,26.20
2017-07-06T07:44:04.404Z,26.20
2017-07-06T07:46:31.829Z,26.30
2017-07-06T07:49:00.046Z,24.90
2017-07-06T07:51:27.497Z,24.80
2017-07-06T07:53:54.957Z,25.20
2017-07-06T07:56:22.502Z,24.70
2017-07-06T07:58:49.932Z,24.70
2017-07-06T08:01:17.393Z,25.00
2017-07-06T08:03:44.824Z,24.30
2017-07-06T08:06:12.265Z,24.10
2017-07-06T08:08:39.697Z,23.60
2017-07-06T08:11:07.484Z,23.70
2017-07-06T08:13:35.687Z,23.50
2017-07-06T08:16:03.114Z,23.90
2017-07-06T08:18:30.566Z,23.60
2017-07-06T08:20:57.994Z,24.00
2017-07-06T08:23:25.464Z,23.50
2017-07-06T08:25:52.900Z,23.80
2017-07-06T08:28:20.356Z,23.70
2017-07-06T08:30:47.817Z,23.30
2017-07-06T08:33:15.251Z,23.00
2017-07-06T08:35:42.687Z,22.50
2017-07-06T08:38:10.156Z,22.40
2017-07-06T08:40:37.597Z,22.40
2017-07-06T08:43:05.032Z,22.80
2017-07-06T08:45:32.457Z,22.80
2017-07-06T08:47:59.898Z,22.00
2017-07-06T08:50:27.351Z,22.70
2017-07-06T08:52:54.786Z,22.10
2017-07-06T08:55:22.244Z,22.60
2017-07-06T08:57:49.694Z,22.60
2017-07-06T09:00:17.190Z,21.90
2017-07-06T09:02:44.605Z,21.70
2017-07-06T09:05:12.805Z,21.00
2017-07-06T09:07:40.241Z,21.00
2017-07-06T09:10:07.713Z,20.90
2017-07-06T09:12:35.140Z,20.70
2017-07-06T09:15:02.605Z,20.80
2017-07-06T09:17:30.038Z,20.20
2017-07-06T09:19:57.544Z,19.90
2017-07-06T09:22:24.980Z,19.70
2017-07-06T09:24:52.447Z,18.90
2017-07-06T09:27:19.910Z,19.20
2017-07-06T09:29:47.364Z,19.30
2017-07-06T09:32:14.817Z,19.40
2017-07-06T09:34:42.367Z,19.30
2017-07-06T09:37:09.816Z,18.30
2017-07-06T09:39:37.256Z,16.30
2017-07-06T09:42:05.512Z,17.30
2017-07-06T09:44:32.954Z,17.30
2017-07-06T09:47:00.380Z,17.90
2017-07-06T09:49:27.829Z,17.10
2017-07-06T09:51:55.263Z,17.40
2017-07-06T09:54:22.912Z,16.90
2017-07-06T09:56:50.349Z,16.40
2017-07-06T09:59:17.773Z,16.60
2017-07-06T10:01:45.220Z,16.80
2017-07-06T10:04:12.647Z,17.00
2017-07-06T10:06:40.085Z,16.20
2017-07-06T10:09:07.545Z,15.90
2017-07-06T10:11:34.997Z,15.00
2017-07-06T10:14:02.418Z,15.30
2017-07-06T10:16:29.977Z,14.70
2017-07-06T10:18:57.439Z,15.30
2017-07-06T10:21:24.900Z,15.60
2017-07-06T10:23:52.333Z,15.90
2017-07-06T10:26:19.820Z,15.40
2017-07-06T10:28:47.269Z,16.50
2017-07-06T10:31:14.757Z,16.30
2017-07-06T10:33:42.201Z,16.30
2017-07-06T10:36:09.642Z,16.80
2017-07-06T10:38:37.077Z,16.60
2017-07-06T10:41:04.517Z,16.70
2017-07-06T10:43:32.079Z,17.20
2017-07-06T10:45:59.613Z,17.40
2017-07-06T10:48:27.076Z,17.80
2017-07-06T10:50:55.300Z,17.70
2017-07-06T10:53:22.796Z,17.60
2017-07-06T10:55:51.012Z,18.40
2017-07-06T10:58:18.457Z,18.40
2017-07-06T11:00:45.895Z,19.30
2017-07-06T11:03:13.329Z,20.00
2017-07-06T11:05:40.770Z,20.50
2017-07-06T11:08:08.321Z,21.30
2017-07-06T11:10:35.754Z,22.60
2017-07-06T11:13:03.184Z,22.60
2017-07-06T11:15:30.806Z,23.20
2017-07-06T11:17:58.985Z,23.50
2017-07-06T11:20:26.485Z,23.30
2017-07-06T11:22:53.904Z,24.00
2017-07-06T11:25:21.331Z,24.20
2017-07-06T11:27:48.772Z,24.70
2017-07-06T11:30:16.206Z,24.50
2017-07-06T11:32:43.651Z,24.80
2017-07-06T11:35:11.143Z,24.60
2017-07-06T11:37:38.594Z,24.10
2017-07-06T11:40:06.027Z,24.90
2017-07-06T11:42:33.453Z,25.30
2017-07-06T11:45:00.889Z,24.50
2017-07-06T11:47:28.368Z,24.90
2017-07-06T11:49:56.726Z,24.70
2017-07-06T11:52:24.939Z,25.20
2017-07-06T11:54:52.411Z,25.20
2017-07-06T11:57:19.841Z,25.60
2017-07-06T11:59:47.296Z,24.60
2017-07-06T12:02:14.733Z,24.30
2017-07-06T12:04:42.187Z,24.70
2017-07-06T12:07:09.621Z,25.10
2017-07-06T12:09:37.058Z,24.40
2017-07-06T12:12:04.527Z,25.00
2017-07-06T12:14:32.725Z,24.80
2017-07-06T12:17:00.173Z,24.80
2017-07-06T12:19:27.598Z,23.70
2017-07-06T12:21:55.028Z,24.20
2017-07-06T12:24:23.276Z,25.00
2017-07-06T12:26:50.696Z,24.90
2017-07-06T12:29:18.129Z,25.10
2017-07-06T12:31:45.560Z,24.80
2017-07-06T12:34:13.000Z,25.60
2017-07-06T12:36:40.446Z,25.50
2017-07-06T12:39:07.896Z,23.00
2017-07-06T12:41:35.342Z,24.20
2017-07-06T12:44:02.769Z,25.00
2017-07-06T12:46:32.093Z,24.90
2017-07-06T12:48:59.523Z,24.80
2017-07-06T12:51:26.965Z,24.20
2017-07-06T12:53:54.405Z,24.20
2017-07-06T12:56:21.860Z,24.40
2017-07-06T12:58:49.297Z,24.40
2017-07-06T13:01:16.757Z,25.20
2017-07-06T13:03:44.965Z,25.40
2017-07-06T13:06:12.402Z,25.30
2017-07-06T13:08:39.844Z,25.90
2017-07-06T13:11:07.274Z,25.20
2017-07-06T13:13:34.718Z,25.00
2017-07-06T13:16:02.329Z,24.90
2017-07-06T13:18:30.582Z,24.70
2017-07-06T13:20:58.116Z,24.70
2017-07-06T13:23:25.550Z,24.60
2017-07-06T13:25:52.993Z,24.90
2017-07-06T13:28:20.433Z,24.70
2017-07-06T13:30:47.889Z,24.30
2017-07-06T13:33:16.329Z,24.40
2017-07-06T13:35:43.759Z,25.00
2017-07-06T13:38:11.194Z,24.80
2017-07-06T13:40:38.624Z,24.90
2017-07-06T13:43:06.070Z,25.00
2017-07-06T13:45:33.506Z,24.90
2017-07-06T13:48:00.947Z,24.90
2017-07-06T13:50:28.373Z,24.70
2017-07-06T13:52:55.810Z,24.90
2017-07-06T13:55:24.049Z,25.40
2017-07-06T13:57:51.472Z,25.40
2017-07-06T14:00:18.952Z,24.70
2017-07-06T14:02:46.384Z,24.70
2017-07-06T14:05:13.957Z,24.40
2017-07-06T14:07:42.196Z,24.70
2017-07-06T14:10:09.736Z,24.70
2017-07-06T14:12:37.187Z,24.60
2017-07-06T14:15:04.724Z,24.30
2017-07-06T14:17:32.166Z,24.10
2017-07-06T14:19:59.619Z,24.70
2017-07-06T14:22:27.111Z,24.40
2017-07-06T14:24:54.585Z,24.40
2017-07-06T14:27:22.764Z,24.50
2017-07-06T14:29:50.209Z,24.70
2017-07-06T14:32:17.641Z,24.80
2017-07-06T14:34:45.093Z,23.90
2017-07-06T14:37:12.525Z,23.60
2017-07-06T14:39:39.990Z,24.20
2017-07-06T14:42:08.184Z,24.60
2017-07-06T14:44:35.681Z,24.50
2017-07-06T14:47:03.118Z,24.40
2017-07-06T14:49:30.563Z,24.40
2017-07-06T14:51:58.161Z,24.60
2017-07-06T14:54:25.594Z,24.50
2017-07-06T14:56:53.037Z,24.70
2017-07-06T14:59:20.634Z,24.70
2017-07-06T15:01:48.177Z,24.70
2017-07-06T15:04:16.548Z,25.00
2017-07-06T15:06:44.001Z,24.90
2017-07-06T15:09:11.451Z,25.10
2017-07-06T15:11:39.645Z,25.40
2017-07-06T15:14:07.092Z,25.40
2017-07-06T15:16:34.521Z,25.10
2017-07-06T15:19:02.025Z,25.80
2017-07-06T15:21:29.452Z,25.10
2017-07-06T15:23:56.889Z,25.10
2017-07-06T15:26:24.360Z,24.90
2017-07-06T15:28:52.557Z,25.10
2017-07-06T15:31:19.997Z,25.10
2017-07-06T15:33:47.445Z,25.20
2017-07-06T15:36:14.904Z,25.50
2017-07-06T15:38:42.344Z,25.70
2017-07-06T15:41:09.773Z,25.50
2017-07-06T15:43:37.216Z,25.90
2017-07-06T15:46:04.648Z,26.30
2017-07-06T15:48:32.118Z,25.90
2017-07-06T15:50:59.544Z,25.90
2017-07-06T15:53:26.980Z,26.00
2017-07-06T15:55:54.412Z,26.00
2017-07-06T15:58:22.012Z,26.20
2017-07-06T16:00:49.611Z,26.20
2017-07-06T16:03:17.801Z,26.90
2017-07-06T16:05:45.245Z,26.90
2017-07-06T16:08:12.675Z,26.90
2017-07-06T16:10:40.122Z,27.60
2017-07-06T16:13:07.549Z,27.30
2017-07-06T16:15:35.040Z,28.20
2017-07-06T16:18:02.472Z,27.70
2017-07-06T16:20:29.905Z,27.60
2017-07-06T16:22:57.336Z,27.60
2017-07-06T16:25:24.778Z,26.90
2017-07-06T16:27:52.245Z,27.60
2017-07-06T16:30:20.286Z,27.40
2017-07-06T16:32:47.724Z,28.40
2017-07-06T16:35:15.176Z,27.10
2017-07-06T16:37:42.601Z,27.20
2017-07-06T16:40:10.042Z,27.40
2017-07-06T16:42:37.480Z,26.90
2017-07-06T16:45:05.010Z,26.60
2017-07-06T16:47:33.194Z,27.00
2017-07-06T16:50:00.625Z,27.00
2017-07-06T16:52:28.057Z,26.80
2017-07-06T16:54:55.496Z,26.40
2017-07-06T16:57:22.933Z,26.30
2017-07-06T16:59:50.436Z,26.50
2017-07-06T17:02:17.877Z,26.70
2017-07-06T17:04:45.305Z,26.70
2017-07-06T17:07:12.765Z,26.60
2017-07-06T17:09:40.385Z,26.90
2017-07-06T17:12:07.962Z,27.00
2017-07-06T17:14:35.405Z,27.10
2017-07-06T17:17:02.836Z,26.80
2017-07-06T17:19:30.272Z,27.10
2017-07-06T17:21:57.725Z,27.40
2017-07-06T17:24:25.165Z,28.00
2017-07-06T17:26:53.388Z,28.20
2017-07-06T17:29:20.824Z,27.90
2017-07-06T17:31:48.255Z,27.90
2017-07-06T17:34:15.691Z,27.60
2017-07-06T17:36:43.132Z,26.90
2017-07-06T17:39:11.629Z,29.30
2017-07-06T17:41:39.070Z,29.30
2017-07-06T17:44:06.492Z,29.80
2017-07-06T17:46:33.941Z,29.70
2017-07-06T17:49:01.434Z,30.10
2017-07-06T17:51:29.211Z,30.30
2017-07-06T17:53:57.422Z,30.40
2017-07-06T17:56:24.888Z,30.30
2017-07-06T17:58:52.384Z,30.10
2017-07-06T18:01:19.816Z,30.40
2017-07-06T18:03:47.344Z,30.10
2017-07-06T18:06:15.546Z,30.40
2017-07-06T18:08:42.989Z,30.10
2017-07-06T18:11:10.434Z,30.20
2017-07-06T18:13:37.877Z,29.80
2017-07-06T18:16:05.329Z,29.90
2017-07-06T18:18:32.775Z,29.60
2017-07-06T18:21:00.219Z,29.60
2017-07-06T18:23:27.656Z,30.40
2017-07-06T18:25:55.204Z,30.00
2017-07-06T18:28:22.652Z,30.00
2017-07-06T18:30:50.105Z,30.10
2017-07-06T18:33:17.533Z,30.30
2017-07-06T18:35:44.970Z,29.70
2017-07-06T18:38:12.412Z,29.80
2017-07-06T18:40:39.856Z,30.40
2017-07-06T18:43:07.296Z,30.70
2017-07-06T18:45:34.725Z,31.20
2017-07-06T18:48:02.172Z,31.40
2017-07-06T18:50:29.607Z,31.80
2017-07-06T18:52:57.052Z,31.80
2017-07-06T18:55:24.490Z,31.70
2017-07-06T18:57:51.925Z,32.00
2017-07-06T19:00:19.364Z,32.10
2017-07-06T19:02:46.797Z,32.90
2017-07-06T19:05:14.244Z,32.10
2017-07-06T19:07:41.709Z,32.60
2017-07-06T19:10:09.163Z,32.80
2017-07-06T19:12:36.596Z,33.10
2017-07-06T19:15:04.043Z,34.00
2017-07-06T19:17:31.476Z,34.00
2017-07-06T19:19:58.904Z,34.70
2017-07-06T19:22:26.348Z,34.90
2017-07-06T19:24:53.813Z,35.00
2017-07-06T19:27:21.461Z,35.00
2017-07-06T19:29:48.896Z,35.30
2017-07-06T19:32:16.382Z,36.00
2017-07-06T19:34:43.822Z,37.50
2017-07-06T19:37:11.249Z,38.50
2017-07-06T19:39:38.904Z,38.50
2017-07-06T19:42:06.382Z,39.40
2017-07-06T19:44:34.588Z,40.30
2017-07-06T19:47:02.037Z,40.20
2017-07-06T19:49:29.472Z,40.80
2017-07-06T19:51:56.910Z,40.60
2017-07-06T19:54:24.457Z,40.60
2017-07-06T19:56:51.880Z,41.00
2017-07-06T19:59:19.320Z,41.10
2017-07-06T20:01:46.757Z,41.40
2017-07-06T20:04:14.205Z,41.60
2017-07-06T20:06:41.639Z,41.80
2017-07-06T20:09:09.094Z,41.80
2017-07-06T20:11:36.616Z,42.20
2017-07-06T20:14:04.824Z,43.10
2017-07-06T20:16:32.296Z,43.00
2017-07-06T20:18:59.805Z,43.80
2017-07-06T20:21:27.228Z,44.40
2017-07-06T20:23:54.678Z,44.90
2017-07-06T20:26:22.162Z,45.30
2017-07-06T20:28:49.717Z,45.30
2017-07-06T20:31:17.154Z,45.50
2017-07-06T20:33:44.630Z,46.00
2017-07-06T20:36:12.099Z,46.30
2017-07-06T20:38:39.551Z,46.70
2017-07-06T20:41:07.016Z,46.80
2017-07-06T20:43:34.462Z,46.90
2017-07-06T20:46:01.922Z,46.90
2017-07-06T20:48:30.173Z,47.90
2017-07-06T20:50:57.612Z,47.40
2017-07-06T20:53:25.055Z,47.70
2017-07-06T20:55:52.504Z,47.80
2017-07-06T20:58:19.944Z,47.90
2017-07-06T21:00:47.462Z,47.90
2017-07-06T21:03:14.904Z,48.00
2017-07-06T21:05:42.485Z,48.20
2017-07-06T21:08:09.980Z,48.50
2017-07-06T21:10:37.416Z,49.00
2017-07-06T21:13:04.909Z,49.50
2017-07-06T21:15:33.437Z,49.90
2017-07-06T21:18:00.867Z,50.20
2017-07-06T21:20:28.402Z,50.50
2017-07-06T21:22:55.903Z,50.80
2017-07-06T21:25:23.562Z,50.80
2017-07-06T21:27:51.110Z,50.70
2017-07-06T21:30:18.661Z,51.00
2017-07-06T21:32:46.292Z,51.10
2017-07-06T21:35:13.748Z,51.30
2017-07-06T21:37:41.944Z,51.70
2017-07-06T21:40:09.428Z,51.70
2017-07-06T21:42:36.868Z,51.70
2017-07-06T21:45:04.311Z,52.10
2017-07-06T21:47:31.787Z,52.20
2017-07-06T21:49:59.992Z,52.70
2017-07-06T21:52:27.440Z,52.70
2017-07-06T21:54:54.903Z,52.90
2017-07-06T21:57:22.448Z,53.10
2017-07-06T21:59:49.919Z,52.80
2017-07-06T22:02:18.118Z,52.80
2017-07-06T22:04:45.555Z,52.70
2017-07-06T22:07:13.040Z,53.40
2017-07-06T22:09:40.480Z,53.20
2017-07-06T22:12:07.929Z,53.60
2017-07-06T22:14:35.360Z,53.70
2017-07-06T22:17:02.810Z,53.90
2017-07-06T22:19:30.253Z,54.10
2017-07-06T22:21:57.705Z,53.90
2017-07-06T22:24:25.958Z,53.70
2017-07-06T22:26:53.406Z,54.10
2017-07-06T22:29:20.838Z,54.20
2017-07-06T22:31:48.281Z,54.00
2017-07-06T22:34:15.709Z,53.90
2017-07-06T22:36:43.173Z,53.80
2017-07-06T22:39:10.686Z,54.00
2017-07-06T22:41:38.125Z,54.10
2017-07-06T22:44:05.562Z,54.20
2017-07-06T22:46:32.993Z,54.30
2017-07-06T22:49:00.474Z,54.60
2017-07-06T22:51:27.905Z,54.30
2017-07-06T22:53:55.352Z,54.10
2017-07-06T22:56:22.780Z,53.80
2017-07-06T22:58:50.221Z,53.80
2017-07-06T23:01:17.680Z,54.20
2017-07-06T23:03:45.110Z,54.30
2017-07-06T23:06:12.573Z,54.40
2017-07-06T23:08:40.057Z,54.60
2017-07-06T23:11:08.251Z,54.80
2017-07-06T23:13:35.691Z,54.80
2017-07-06T23:16:03.136Z,55.00
2017-07-06T23:18:30.565Z,55.00
2017-07-06T23:20:57.997Z,55.00
2017-07-06T23:23:25.435Z,54.90
2017-07-06T23:25:52.946Z,54.40
2017-07-06T23:28:20.394Z,54.50
2017-07-06T23:30:47.920Z,54.40
2017-07-06T23:33:15.473Z,54.10
2017-07-06T23:35:42.898Z,54.10
2017-07-06T23:38:10.343Z,53.60
2017-07-06T23:40:38.580Z,53.40
2017-07-06T23:43:06.005Z,53.50
2017-07-06T23:45:33.445Z,53.40
2017-07-06T23:48:00.886Z,53.40
2017-07-06T23:50:28.393Z,53.30
2017-07-06T23:52:55.828Z,53.20
2017-07-06T23:55:23.311Z,53.40
2017-07-06T23:57:50.695Z,53.50
